Thorco Crystal — V2BP9 — position and weather

sailwx.info

Track history (hours):
 
Tides and Currents Weather Stations Pressure Air Temp Water Temp Dewpoint Dewpoint Depression Visibility Wind Speed Wind Dir Waves Ship Positions

Thorco Crystal

Last reported at 2015-Mar-31 02:33 UTC. Time now 2015-Mar-31 03:24 UTC.
Position N 51°23' E 003°47'.

Length 145 m; draft 6 m.

Type: Ship. MMSI: 304736000.

Date/timePositionNaut miles runAvg speedWind from/ knotsBaromVisibWave heightAir tempDewpointWater temp
2015-Mar-31 02:33N 51°23' E 003°47'0 0.1
2015-Mar-31 01:33N 51°23' E 003°47'3 2.5
2015-Mar-31 00:33N 51°24' E 003°44'1211.6
2015-Mar-30 23:33N 51°25' E 003°25'1414.0
2015-Mar-30 22:32N 51°24' E 003°02'1313.8
2015-Mar-30 21:33N 51°22' E 002°41'1313.0
2015-Mar-30 20:33N 51°19' E 002°21'1414.2
2015-Mar-30 19:34N 51°12' E 002°01'1313.0
2015-Mar-30 18:33N 51°04' E 001°44'1312.4
2015-Mar-30 17:32N 50°55' E 001°31'1211.5
2015-Mar-30 16:32N 50°45' E 001°22'  
2015-Mar-25 10:30N 30°21' W 014°36'10 8.6
2015-Mar-25 09:18N 30°11' W 014°39'9 8.9
2015-Mar-25 08:16N 30°03' W 014°42'71 9.2
2015-Mar-25 00:33N 28°55' W 015°06'1010.2
2015-Mar-24 23:33N 28°45' W 015°10'10 9.8
2015-Mar-24 22:33N 28°36' W 015°13'1010.1
2015-Mar-24 21:33N 28°26' W 015°16'1110.6
2015-Mar-24 20:33N 28°16' W 015°20'10 9.6
2015-Mar-24 19:33N 28°07' W 015°25'1 1.2
2015-Mar-24 18:30N 28°08' W 015°25'0 0.0
2015-Mar-24 17:33N 28°08' W 015°25'0 0.0
2015-Mar-24 16:18N 28°08' W 015°25'0 0.0
2015-Mar-24 15:33N 28°08' W 015°25'0 0.0
2015-Mar-24 14:33N 28°08' W 015°25'0 0.0
2015-Mar-24 13:33N 28°08' W 015°25'0 0.0
2015-Mar-24 12:33N 28°08' W 015°25'2 1.7
2015-Mar-24 11:34N 28°07' W 015°24'1010.1
2015-Mar-24 10:33N 27°58' W 015°19'1010.3
2015-Mar-24 09:33N 27°48' W 015°19'1510.8
2015-Mar-24 08:09N 27°33' W 015°23'  
Track history (hours):
 
Tides and Currents Weather Stations Pressure Air Temp Water Temp Dewpoint Dewpoint Depression Visibility Wind Speed Wind Dir Waves Ship Positions

Thorco Crystal

Last reported at 2015-Mar-31 02:33 UTC. Time now 2015-Mar-31 03:24 UTC.
Position N 51°23' E 003°47'.

Length 145 m; draft 6 m.

Type: Ship. MMSI: 304736000.

Date/timePositionNaut miles runAvg speedWind from/ knotsBaromVisibWave heightAir tempDewpointWater temp
2015-Mar-31 02:33N 51°23' E 003°47'0 0.1
2015-Mar-31 01:33N 51°23' E 003°47'3 2.5
2015-Mar-31 00:33N 51°24' E 003°44'1211.6
2015-Mar-30 23:33N 51°25' E 003°25'1414.0
2015-Mar-30 22:32N 51°24' E 003°02'1313.8
2015-Mar-30 21:33N 51°22' E 002°41'1313.0
2015-Mar-30 20:33N 51°19' E 002°21'1414.2
2015-Mar-30 19:34N 51°12' E 002°01'1313.0
2015-Mar-30 18:33N 51°04' E 001°44'1312.4
2015-Mar-30 17:32N 50°55' E 001°31'1211.5
2015-Mar-30 16:32N 50°45' E 001°22'  
2015-Mar-25 10:30N 30°21' W 014°36'10 8.6
2015-Mar-25 09:18N 30°11' W 014°39'9 8.9
2015-Mar-25 08:16N 30°03' W 014°42'71 9.2
2015-Mar-25 00:33N 28°55' W 015°06'1010.2
2015-Mar-24 23:33N 28°45' W 015°10'10 9.8
2015-Mar-24 22:33N 28°36' W 015°13'1010.1
2015-Mar-24 21:33N 28°26' W 015°16'1110.6
2015-Mar-24 20:33N 28°16' W 015°20'10 9.6
2015-Mar-24 19:33N 28°07' W 015°25'1 1.2
2015-Mar-24 18:30N 28°08' W 015°25'0 0.0
2015-Mar-24 17:33N 28°08' W 015°25'0 0.0
2015-Mar-24 16:18N 28°08' W 015°25'0 0.0
2015-Mar-24 15:33N 28°08' W 015°25'0 0.0
2015-Mar-24 14:33N 28°08' W 015°25'0 0.0
2015-Mar-24 13:33N 28°08' W 015°25'0 0.0
2015-Mar-24 12:33N 28°08' W 015°25'2 1.7
2015-Mar-24 11:34N 28°07' W 015°24'1010.1
2015-Mar-24 10:33N 27°58' W 015°19'1010.3
2015-Mar-24 09:33N 27°48' W 015°19'1510.8
2015-Mar-24 08:09N 27°33' W 015°23'  

Dump ship's entire track history